Time;durP1;ratioP1;P1;durP2;ratioP2;P2;SDS_P1;SDS_P2;PMS_P1;PMS_P2;Temp;Humidity;BMP_temperature;BMP_pressure;BME280_temperature;BME280_humidity;BME280_pressure;Samples;Min_cycle;Max_cycle;Signal;HPM_P1;HPM_P2
2021/07/04 00:00:46;;;;;;;13.53;11.03;;;17.80;1.00;;;;;;5033273;28;20214;-64
2021/07/04 00:03:14;;;;;;;14.10;11.60;;;17.80;1.00;;;;;;5033806;28;20213;-64
2021/07/04 00:05:43;;;;;;;15.40;11.30;;;17.80;1.00;;;;;;5033573;28;20227;-63
2021/07/04 00:08:11;;;;;;;15.57;11.80;;;17.80;1.00;;;;;;5032952;28;20218;-63
2021/07/04 00:10:42;;;;;;;15.33;12.60;;;17.90;99.90;;;;;;5033613;28;20219;-63
2021/07/04 00:13:10;;;;;;;16.33;12.13;;;17.80;99.90;;;;;;5033937;28;20272;-63
2021/07/04 00:15:40;;;;;;;16.30;12.17;;;17.80;99.90;;;;;;5033477;28;20226;-63
2021/07/04 00:18:07;;;;;;;16.93;13.23;;;17.80;99.90;;;;;;5032705;28;20729;-63
2021/07/04 00:20:34;;;;;;;18.40;13.20;;;17.80;99.90;;;;;;5032148;28;20740;-63
2021/07/04 00:23:00;;;;;;;19.30;12.73;;;17.80;99.90;;;;;;5033428;28;20619;-63
2021/07/04 00:25:29;;;;;;;20.40;13.20;;;17.80;99.90;;;;;;5033229;28;20230;-64
2021/07/04 00:27:56;;;;;;;19.07;14.10;;;17.80;1.00;;;;;;5033547;28;20203;-63
2021/07/04 00:30:25;;;;;;;16.40;13.03;;;17.80;1.00;;;;;;5033334;28;20729;-63
2021/07/04 00:32:52;;;;;;;17.60;13.43;;;17.70;1.00;;;;;;5033416;28;20249;-64
2021/07/04 00:35:21;;;;;;;17.87;14.83;;;17.60;9.60;;;;;;5032747;28;20738;-63
2021/07/04 00:37:49;;;;;;;21.03;15.40;;;17.70;85.90;;;;;;5033223;28;20214;-64
2021/07/04 00:40:16;;;;;;;20.80;15.90;;;17.60;99.90;;;;;;5032321;28;20233;-64
2021/07/04 00:42:43;;;;;;;22.43;16.90;;;17.50;1.00;;;;;;5033089;28;20260;-62
2021/07/04 00:45:11;;;;;;;25.43;17.83;;;17.50;99.90;;;;;;5032798;28;20246;-64
2021/07/04 00:47:40;;;;;;;20.87;16.57;;;17.40;99.90;;;;;;5032919;28;20210;-64
2021/07/04 00:50:08;;;;;;;22.20;17.50;;;17.40;1.00;;;;;;5032814;28;20206;-64
2021/07/04 00:52:35;;;;;;;26.53;16.60;;;17.40;1.00;;;;;;5032717;28;20214;-64
2021/07/04 00:55:04;;;;;;;23.23;18.07;;;17.40;6.90;;;;;;5031911;28;20769;-64
2021/07/04 00:57:33;;;;;;;21.23;17.00;;;17.50;28.70;;;;;;5032601;28;20291;-64
2021/07/04 00:59:59;;;;;;;18.93;15.30;;;17.40;1.00;;;;;;5032736;28;20230;-63
2021/07/04 01:02:26;;;;;;;20.23;14.57;;;17.50;1.00;;;;;;5032626;28;20221;-64
2021/07/04 01:04:55;;;;;;;19.77;16.00;;;17.50;1.00;;;;;;5032564;28;20210;-64
2021/07/04 01:07:22;;;;;;;20.20;16.00;;;17.50;1.00;;;;;;5032736;28;20321;-63
2021/07/04 01:09:49;;;;;;;19.37;14.83;;;17.40;1.00;;;;;;5032595;28;20260;-64
2021/07/04 01:12:15;;;;;;;17.77;15.37;;;17.40;1.00;;;;;;5032698;28;20210;-63
2021/07/04 01:14:42;;;;;;;19.37;14.80;;;17.40;99.90;;;;;;5032229;28;20206;-63
2021/07/04 01:17:09;;;;;;;17.17;14.77;;;17.40;99.90;;;;;;5032291;28;20292;-64
2021/07/04 01:19:36;;;;;;;25.03;16.40;;;17.40;99.90;;;;;;5032456;28;20789;-63
2021/07/04 01:22:05;;;;;;;19.33;16.07;;;17.40;99.90;;;;;;5032280;28;20206;-64
2021/07/04 01:24:33;;;;;;;22.70;16.63;;;17.40;99.90;;;;;;5031739;28;20210;-64
2021/07/04 01:26:59;;;;;;;18.47;15.77;;;17.50;99.90;;;;;;5031182;28;20234;-63
2021/07/04 01:29:26;;;;;;;20.67;15.87;;;17.50;1.00;;;;;;5031917;28;20616;-63
2021/07/04 01:31:53;;;;;;;19.10;15.43;;;17.50;99.90;;;;;;5032417;28;20233;-63
2021/07/04 01:34:19;;;;;;;19.10;15.47;;;17.50;1.00;;;;;;5032940;28;20244;-63
2021/07/04 01:36:46;;;;;;;19.00;16.40;;;17.50;1.00;;;;;;5032890;28;20744;-63
2021/07/04 01:39:13;;;;;;;26.70;17.80;;;17.50;88.10;;;;;;5032687;28;20222;-63
2021/07/04 01:41:41;;;;;;;26.77;18.83;;;17.40;99.90;;;;;;5031778;28;20254;-64
2021/07/04 01:44:08;;;;;;;24.67;19.23;;;17.30;99.90;;;;;;5032218;28;20202;-63
2021/07/04 01:46:35;;;;;;;23.17;18.70;;;17.20;1.00;;;;;;5032007;28;20933;-63
2021/07/04 01:49:01;;;;;;;25.13;19.03;;;17.20;68.10;;;;;;5031816;28;20276;-64
2021/07/04 01:51:28;;;;;;;22.63;18.00;;;17.30;99.90;;;;;;5031224;28;20279;-63
2021/07/04 01:53:55;;;;;;;24.53;18.23;;;17.30;99.90;;;;;;5031828;28;20205;-63
2021/07/04 01:56:22;;;;;;;21.50;18.07;;;17.40;99.90;;;;;;5031877;28;20238;-63
2021/07/04 01:58:50;;;;;;;22.97;18.83;;;17.40;99.90;;;;;;5031508;28;20225;-63
2021/07/04 02:01:17;;;;;;;23.33;18.23;;;17.40;99.90;;;;;;5032209;28;20210;-63
2021/07/04 02:03:43;;;;;;;22.40;19.07;;;17.40;99.90;;;;;;5031673;28;20321;-64
2021/07/04 02:06:10;;;;;;;27.10;18.97;;;17.40;99.90;;;;;;5031863;28;20234;-63
2021/07/04 02:08:37;;;;;;;23.67;18.93;;;17.40;99.90;;;;;;5030888;28;20670;-63
2021/07/04 02:11:03;;;;;;;26.37;19.63;;;17.40;99.90;;;;;;5031732;28;20264;-63
2021/07/04 02:13:30;;;;;;;25.97;19.83;;;17.40;99.90;;;;;;5031653;28;20730;-64
2021/07/04 02:15:58;;;;;;;24.70;19.83;;;17.40;99.90;;;;;;5031745;28;20226;-63
2021/07/04 02:18:25;;;;;;;24.90;19.23;;;17.40;99.90;;;;;;5030958;28;20260;-63
2021/07/04 02:20:53;;;;;;;27.23;19.43;;;17.40;99.90;;;;;;5031731;28;20256;-63
2021/07/04 02:23:23;;;;;;;24.83;19.20;;;17.40;99.90;;;;;;5031831;28;20260;-63
2021/07/04 02:25:51;;;;;;;24.33;19.23;;;17.40;99.90;;;;;;5031138;28;20230;-63
2021/07/04 02:28:19;;;;;;;26.97;21.13;;;17.40;99.90;;;;;;5031717;28;20667;-62
2021/07/04 02:30:47;;;;;;;25.67;20.83;;;17.40;99.90;;;;;;5031761;28;20210;-63
2021/07/04 02:33:16;;;;;;;25.33;20.23;;;17.30;99.90;;;;;;5031675;28;20202;-63
2021/07/04 02:35:45;;;;;;;27.60;20.67;;;17.30;99.90;;;;;;5031270;28;20230;-62
2021/07/04 02:38:12;;;;;;;28.70;20.63;;;17.30;99.90;;;;;;5031427;28;20775;-63
2021/07/04 02:40:40;;;;;;;27.77;22.60;;;17.20;99.90;;;;;;5031772;28;20230;-63
2021/07/04 02:43:09;;;;;;;27.00;20.77;;;17.20;99.90;;;;;;5031059;28;20218;-63
2021/07/04 02:45:36;;;;;;;27.03;20.60;;;17.20;99.90;;;;;;5030933;28;20230;-63
2021/07/04 02:48:03;;;;;;;27.47;22.03;;;17.20;99.90;;;;;;5031143;28;20210;-63
2021/07/04 02:50:31;;;;;;;26.47;20.80;;;17.20;99.90;;;;;;5032248;28;20667;-63
2021/07/04 02:52:58;;;;;;;27.73;21.40;;;17.20;99.90;;;;;;5032077;28;20619;-63
2021/07/04 02:55:25;;;;;;;29.23;22.17;;;17.20;99.90;;;;;;5031411;28;20210;-63
2021/07/04 02:57:52;;;;;;;28.80;22.50;;;17.10;99.90;;;;;;5032362;28;20214;-63
2021/07/04 03:00:21;;;;;;;29.97;22.37;;;17.10;99.90;;;;;;5036522;28;20230;-64
2021/07/04 03:02:48;;;;;;;28.97;22.57;;;17.10;99.90;;;;;;5037463;28;20202;-63
2021/07/04 03:05:15;;;;;;;28.93;22.40;;;17.10;99.90;;;;;;5036450;28;20283;-64
2021/07/04 03:07:44;;;;;;;28.60;21.87;;;17.10;99.90;;;;;;5035232;28;20640;-63
2021/07/04 03:10:13;;;;;;;27.40;21.57;;;17.10;99.90;;;;;;5034393;28;20203;-64
2021/07/04 03:12:40;;;;;;;29.53;22.33;;;17.10;99.90;;;;;;5035000;28;20211;-64
2021/07/04 03:15:10;;;;;;;29.47;22.03;;;17.10;99.90;;;;;;5034633;28;20214;-63
2021/07/04 03:17:36;;;;;;;28.80;21.17;;;17.00;1.00;;;;;;5034558;28;20206;-63
2021/07/04 03:20:04;;;;;;;27.33;21.37;;;17.10;1.00;;;;;;5034099;28;20230;-64
2021/07/04 03:22:31;;;;;;;25.87;20.23;;;17.10;99.90;;;;;;5034829;28;20207;-64
2021/07/04 03:25:00;;;;;;;28.07;22.00;;;17.00;99.90;;;;;;5034704;28;20210;-64
2021/07/04 03:27:26;;;;;;;29.20;23.00;;;17.00;99.90;;;;;;5034579;28;20258;-64
2021/07/04 03:29:53;;;;;;;25.93;21.77;;;16.90;1.00;;;;;;5033952;28;20203;-63
2021/07/04 03:32:19;;;;;;;27.13;22.30;;;16.90;1.00;;;;;;5034228;28;20219;-61
2021/07/04 03:34:48;;;;;;;26.53;21.73;;;17.00;1.00;;;;;;5034210;28;20206;-62
2021/07/04 03:37:15;;;;;;;27.20;21.63;;;17.00;1.00;;;;;;5034043;28;20230;-63
2021/07/04 03:39:42;;;;;;;32.17;22.03;;;17.00;1.00;;;;;;5034475;28;20226;-63
2021/07/04 03:42:11;;;;;;;29.40;23.60;;;17.00;1.00;;;;;;5034129;28;20265;-64
2021/07/04 03:44:38;;;;;;;31.87;23.33;;;17.00;1.00;;;;;;5034136;28;20214;-64
2021/07/04 03:47:04;;;;;;;26.73;21.40;;;17.00;1.00;;;;;;5033584;28;20284;-61
2021/07/04 03:49:31;;;;;;;26.13;20.43;;;17.10;99.90;;;;;;5033342;28;20207;-60
2021/07/04 03:51:58;;;;;;;29.07;21.87;;;17.10;99.90;;;;;;5034359;28;20212;-61
2021/07/04 03:54:24;;;;;;;30.27;23.07;;;17.00;1.00;;;;;;5033686;28;20210;-61
2021/07/04 03:56:51;;;;;;;27.87;22.90;;;17.00;1.00;;;;;;5033997;28;20226;-61
2021/07/04 03:59:19;;;;;;;28.10;22.83;;;17.00;1.00;;;;;;5033789;28;20230;-61
2021/07/04 04:01:45;;;;;;;30.97;22.90;;;17.00;1.00;;;;;;5034139;28;20213;-61
2021/07/04 04:04:12;;;;;;;30.47;22.93;;;17.00;1.00;;;;;;5033624;28;20207;-61
2021/07/04 04:06:39;;;;;;;32.30;24.50;;;17.00;1.00;;;;;;5033967;28;20776;-61
2021/07/04 04:09:05;;;;;;;30.53;23.20;;;17.00;1.00;;;;;;5033652;28;20206;-62
2021/07/04 04:11:32;;;;;;;31.93;23.87;;;17.00;1.00;;;;;;5033794;28;20206;-60
2021/07/04 04:13:59;;;;;;;27.70;21.07;;;17.10;1.00;;;;;;5033326;28;20257;-62
2021/07/04 04:16:27;;;;;;;28.03;22.13;;;17.10;1.00;;;;;;5033364;28;20300;-61
2021/07/04 04:18:53;;;;;;;29.63;21.60;;;17.10;1.00;;;;;;5032806;28;20249;-61
2021/07/04 04:21:20;;;;;;;30.53;23.27;;;17.10;1.00;;;;;;5033073;28;20260;-61
2021/07/04 04:23:47;;;;;;;28.63;20.63;;;17.10;1.00;;;;;;5033439;28;20264;-61
2021/07/04 04:26:13;;;;;;;30.87;22.00;;;17.20;1.00;;;;;;5033271;28;20233;-61
2021/07/04 04:28:40;;;;;;;27.03;20.70;;;17.20;1.00;;;;;;5033283;28;20213;-61
2021/07/04 04:31:07;;;;;;;26.97;21.60;;;17.20;1.00;;;;;;5033341;28;20268;-61
2021/07/04 04:33:35;;;;;;;26.37;21.20;;;17.20;1.00;;;;;;5032432;28;20805;-61
2021/07/04 04:36:01;;;;;;;26.07;21.90;;;17.30;1.00;;;;;;5033164;28;20226;-62
2021/07/04 04:38:28;;;;;;;29.97;22.17;;;17.30;1.00;;;;;;5033386;28;20214;-61
2021/07/04 04:40:55;;;;;;;26.67;21.83;;;17.40;1.00;;;;;;5032204;28;20706;-61
2021/07/04 04:43:22;;;;;;;25.23;20.50;;;17.40;1.00;;;;;;5032622;28;20214;-61
2021/07/04 04:45:48;;;;;;;24.93;21.60;;;17.40;1.00;;;;;;5033165;28;20238;-61
2021/07/04 04:48:15;;;;;;;31.00;22.10;;;17.50;1.00;;;;;;5032962;28;20576;-61
2021/07/04 04:50:43;;;;;;;27.00;21.10;;;17.60;1.00;;;;;;5032801;28;20852;-61
2021/07/04 04:53:09;;;;;;;27.10;20.30;;;17.60;1.00;;;;;;5032827;28;20210;-61
2021/07/04 04:55:36;;;;;;;30.90;23.47;;;17.70;1.00;;;;;;5032609;28;20234;-61
2021/07/04 04:58:03;;;;;;;25.77;20.50;;;17.70;1.00;;;;;;5032684;28;20214;-62
2021/07/04 05:00:29;;;;;;;26.10;21.03;;;17.70;1.00;;;;;;5032975;28;20272;-62
2021/07/04 05:02:56;;;;;;;25.37;21.37;;;17.80;1.00;;;;;;5033074;28;20206;-62
2021/07/04 05:05:23;;;;;;;26.50;20.87;;;17.80;1.00;;;;;;5032485;28;20206;-62
2021/07/04 05:07:51;;;;;;;25.10;20.20;;;17.90;1.00;;;;;;5032409;28;20210;-61
2021/07/04 05:10:17;;;;;;;24.13;20.10;;;18.00;1.00;;;;;;5032662;28;20210;-61
2021/07/04 05:12:44;;;;;;;24.40;20.07;;;18.10;1.00;;;;;;5032856;28;20210;-61
2021/07/04 05:15:11;;;;;;;25.53;20.47;;;18.10;1.00;;;;;;5032811;28;20251;-62
2021/07/04 05:17:37;;;;;;;25.00;19.80;;;18.10;99.90;;;;;;5032566;28;20252;-62
2021/07/04 05:20:05;;;;;;;24.53;19.77;;;18.10;99.90;;;;;;5032393;28;20279;-61
2021/07/04 05:22:32;;;;;;;23.77;19.73;;;18.20;28.80;;;;;;5032514;28;20210;-61
2021/07/04 05:25:01;;;;;;;22.63;20.23;;;18.20;99.90;;;;;;5031436;28;20732;-61
2021/07/04 05:27:27;;;;;;;21.93;19.47;;;18.20;1.00;;;;;;5031859;28;20226;-61
2021/07/04 05:29:54;;;;;;;20.53;18.33;;;18.30;99.90;;;;;;5032561;28;20202;-65
2021/07/04 05:32:21;;;;;;;24.13;18.40;;;18.30;99.90;;;;;;5032257;28;20748;-61
2021/07/04 05:34:48;;;;;;;23.93;17.97;;;18.30;99.90;;;;;;5031358;28;20213;-61
2021/07/04 05:37:15;;;;;;;23.63;19.90;;;18.30;99.90;;;;;;5031768;28;20276;-61
2021/07/04 05:39:42;;;;;;;24.43;19.67;;;18.20;1.00;;;;;;5032066;28;20321;-62
2021/07/04 05:42:10;;;;;;;22.47;19.27;;;18.30;1.00;;;;;;5032406;28;20287;-61
2021/07/04 05:44:36;;;;;;;25.13;19.50;;;18.30;31.40;;;;;;5032209;28;20631;-61
2021/07/04 05:47:03;;;;;;;20.43;18.17;;;18.40;99.90;;;;;;5032135;28;20222;-62
2021/07/04 05:49:30;;;;;;;19.80;17.30;;;18.50;99.90;;;;;;5031202;28;20214;-62
2021/07/04 05:51:57;;;;;;;20.70;17.50;;;18.40;1.00;;;;;;5031719;28;20214;-63
2021/07/04 05:54:23;;;;;;;20.03;17.73;;;18.30;26.60;;;;;;5031788;28;20626;-63
2021/07/04 05:56:50;;;;;;;20.30;16.93;;;18.30;99.90;;;;;;5032268;28;20637;-62
2021/07/04 05:59:18;;;;;;;19.90;16.33;;;18.40;99.90;;;;;;5032934;28;20217;-63
2021/07/04 06:01:45;;;;;;;19.53;16.30;;;18.40;1.00;;;;;;5032101;28;20295;-61
2021/07/04 06:04:12;;;;;;;17.83;14.93;;;18.30;99.90;;;;;;5031540;28;20242;-63
2021/07/04 06:06:38;;;;;;;17.73;14.57;;;18.40;99.90;;;;;;5031836;28;20222;-62
2021/07/04 06:09:05;;;;;;;17.70;14.83;;;18.40;99.90;;;;;;5031583;28;20667;-63
2021/07/04 06:11:32;;;;;;;18.00;14.37;;;18.60;99.90;;;;;;5032067;28;20206;-63
2021/07/04 06:13:59;;;;;;;18.93;15.37;;;18.70;99.90;;;;;;5031835;28;20203;-63
2021/07/04 06:16:27;;;;;;;16.23;14.33;;;18.80;99.90;;;;;;5031859;28;20233;-63
2021/07/04 06:18:54;;;;;;;16.03;13.53;;;18.90;99.90;;;;;;5031511;28;20203;-63
2021/07/04 06:21:20;;;;;;;14.23;12.43;;;19.00;1.00;;;;;;5031745;28;20717;-63
2021/07/04 06:23:47;;;;;;;18.27;12.60;;;19.20;99.90;;;;;;5031800;28;20206;-63
2021/07/04 06:26:14;;;;;;;13.87;12.00;;;19.30;1.00;;;;;;5031424;28;20234;-63
2021/07/04 06:28:40;;;;;;;16.10;11.77;;;19.40;99.90;;;;;;5031644;28;20273;-63
2021/07/04 06:31:07;;;;;;;15.00;12.67;;;19.60;99.90;;;;;;5031611;28;20249;-63
2021/07/04 06:33:35;;;;;;;13.63;12.13;;;19.70;99.90;;;;;;5029191;28;20620;-63
2021/07/04 06:36:01;;;;;;;15.70;12.77;;;19.80;99.90;;;;;;5030402;28;20280;-63
2021/07/04 06:38:28;;;;;;;13.03;11.00;;;19.90;99.90;;;;;;5033175;28;20206;-64
2021/07/04 06:40:55;;;;;;;13.60;11.00;;;20.00;99.90;;;;;;5035426;28;20648;-63
2021/07/04 06:43:21;;;;;;;15.03;11.90;;;20.00;99.90;;;;;;5034956;28;20288;-63
2021/07/04 06:45:48;;;;;;;12.43;10.70;;;20.10;99.90;;;;;;5034540;28;20273;-64
2021/07/04 06:48:15;;;;;;;13.90;11.37;;;20.10;99.90;;;;;;5034683;28;20690;-64
2021/07/04 06:50:43;;;;;;;13.30;11.03;;;20.10;1.00;;;;;;5035445;28;20245;-63
2021/07/04 06:53:09;;;;;;;12.47;11.10;;;20.10;99.90;;;;;;5035228;28;20284;-63
2021/07/04 06:55:36;;;;;;;14.50;12.13;;;20.00;99.90;;;;;;5034314;28;20238;-63
2021/07/04 06:58:03;;;;;;;14.87;11.77;;;19.90;99.90;;;;;;5035288;28;20260;-63
2021/07/04 07:00:30;;;;;;;14.17;11.63;;;19.80;99.90;;;;;;5035182;28;20276;-63
2021/07/04 07:02:56;;;;;;;14.70;12.50;;;19.80;99.90;;;;;;5035448;28;20201;-62
2021/07/04 07:05:23;;;;;;;15.27;12.17;;;19.70;99.90;;;;;;5034524;28;20215;-64
2021/07/04 07:07:51;;;;;;;15.03;12.47;;;19.70;1.00;;;;;;5035090;28;20725;-63
2021/07/04 07:10:18;;;;;;;15.03;12.53;;;19.80;1.00;;;;;;5034794;28;20207;-62
2021/07/04 07:12:45;;;;;;;16.33;12.80;;;19.80;99.90;;;;;;5034804;28;20206;-63
2021/07/04 07:15:13;;;;;;;16.40;11.80;;;19.90;77.60;;;;;;5033021;28;20675;-63
2021/07/04 07:17:40;;;;;;;16.53;13.27;;;20.10;99.90;;;;;;5033472;28;20260;-63
2021/07/04 07:20:09;;;;;;;19.43;12.83;;;20.20;1.00;;;;;;5033110;28;20222;-63
2021/07/04 07:22:36;;;;;;;16.53;13.93;;;20.30;99.90;;;;;;5034460;28;20214;-63
2021/07/04 07:25:05;;;;;;;14.50;12.97;;;20.50;99.90;;;;;;5034155;28;20214;-63
2021/07/04 07:27:31;;;;;;;18.37;12.47;;;20.70;99.90;;;;;;5034362;28;20238;-63
2021/07/04 07:29:58;;;;;;;16.03;11.93;;;20.80;64.90;;;;;;5034405;28;20210;-63
2021/07/04 07:32:26;;;;;;;15.60;12.70;;;21.00;99.90;;;;;;5034330;28;20260;-63
2021/07/04 07:34:53;;;;;;;14.40;11.17;;;21.20;1.00;;;;;;5030031;28;20242;-63
2021/07/04 07:37:22;;;;;;;17.63;12.00;;;21.40;99.90;;;;;;5030516;28;20959;-63
2021/07/04 07:39:49;;;;;;;12.37;10.37;;;21.70;99.90;;;;;;5030949;28;20225;-62
2021/07/04 07:42:17;;;;;;;15.17;11.13;;;22.00;99.90;;;;;;5030461;28;20230;-63
2021/07/04 07:44:43;;;;;;;12.17;10.83;;;22.30;99.90;;;;;;5030352;28;20807;-63
2021/07/04 07:47:10;;;;;;;14.93;10.70;;;22.40;47.80;;;;;;5030914;28;20280;-62
2021/07/04 07:49:37;;;;;;;12.87;10.43;;;22.60;26.00;;;;;;5029251;28;20210;-62
2021/07/04 07:52:04;;;;;;;13.93;10.33;;;22.80;1.00;;;;;;5030359;28;20210;-65
2021/07/04 07:54:31;;;;;;;10.53;9.23;;;22.80;1.00;;;;;;5030197;28;20210;-66
2021/07/04 07:57:01;;;;;;;12.90;10.53;;;22.60;1.00;;;;;;5030610;28;20254;-67
2021/07/04 07:59:29;;;;;;;10.83;9.57;;;22.20;1.00;;;;;;5031394;28;20214;-62
2021/07/04 08:01:56;;;;;;;14.27;10.50;;;21.90;1.00;;;;;;5031063;28;20706;-64
2021/07/04 08:04:23;;;;;;;12.10;10.50;;;21.90;11.40;;;;;;5034332;28;20210;-62
2021/07/04 08:06:49;;;;;;;11.80;9.90;;;22.00;1.00;;;;;;5034194;28;20288;-63
2021/07/04 08:09:16;;;;;;;12.33;9.87;;;22.30;1.00;;;;;;5034112;28;20217;-64
2021/07/04 08:11:43;;;;;;;11.73;9.80;;;22.40;1.00;;;;;;5033955;28;20214;-63
2021/07/04 08:14:09;;;;;;;12.10;10.07;;;22.40;1.00;;;;;;5032750;28;20202;-64
2021/07/04 08:16:37;;;;;;;10.63;9.47;;;22.30;1.00;;;;;;5032295;28;20234;-64
2021/07/04 08:19:04;;;;;;;13.40;10.00;;;22.30;1.00;;;;;;5033416;28;20206;-64
2021/07/04 08:21:31;;;;;;;12.97;9.67;;;22.30;1.00;;;;;;5033261;28;20285;-64
2021/07/04 08:24:00;;;;;;;11.87;10.67;;;22.40;29.30;;;;;;5033236;28;20256;-64
2021/07/04 08:26:27;;;;;;;12.77;10.83;;;22.60;3.40;;;;;;5034121;28;20252;-64
2021/07/04 08:28:54;;;;;;;12.17;10.10;;;22.80;1.00;;;;;;5033607;28;20241;-64
2021/07/04 08:31:23;;;;;;;12.67;10.67;;;22.70;1.00;;;;;;5033412;28;20198;-64
2021/07/04 08:33:51;;;;;;;12.63;10.67;;;22.70;1.00;;;;;;5031067;28;20260;-65
2021/07/04 08:36:18;;;;;;;11.50;9.80;;;22.90;1.00;;;;;;5034090;28;20229;-63
2021/07/04 08:38:44;;;;;;;15.20;10.40;;;22.90;1.00;;;;;;5033225;28;20206;-66
2021/07/04 08:41:12;;;;;;;14.50;11.37;;;23.00;1.00;;;;;;5032811;28;20636;-64
2021/07/04 08:43:39;;;;;;;16.40;11.37;;;22.80;1.00;;;;;;5032625;28;20228;-64
2021/07/04 08:46:06;;;;;;;13.77;10.23;;;22.80;1.00;;;;;;5033054;28;20230;-64
2021/07/04 08:48:34;;;;;;;10.97;9.70;;;22.70;1.00;;;;;;5030684;28;20601;-64
2021/07/04 08:51:02;;;;;;;12.80;10.40;;;22.60;1.00;;;;;;5032443;28;20292;-64
2021/07/04 08:53:28;;;;;;;12.90;10.97;;;22.60;1.00;;;;;;5032303;28;20214;-64
2021/07/04 08:55:55;;;;;;;15.00;11.43;;;22.50;1.00;;;;;;5032050;28;20644;-64
2021/07/04 08:58:23;;;;;;;12.67;10.30;;;22.40;1.00;;;;;;5032720;28;20207;-64
2021/07/04 09:01:10;;;;;;;11.67;10.33;;;22.50;1.00;;;;;;5031680;28;20718;-64
2021/07/04 09:03:37;;;;;;;12.93;10.07;;;22.60;1.00;;;;;;5031739;28;20741;-65
2021/07/04 09:06:05;;;;;;;10.73;9.63;;;22.70;1.00;;;;;;5030531;28;20815;-64
2021/07/04 09:08:32;;;;;;;11.27;9.70;;;22.70;1.00;;;;;;5032373;28;20632;-64
2021/07/04 09:11:16;;;;;;;10.33;8.93;;;22.80;1.00;;;;;;5032200;28;20237;-64
2021/07/04 09:13:45;;;;;;;9.97;8.63;;;22.80;1.00;;;;;;5031704;28;20265;-64
2021/07/04 09:16:13;;;;;;;9.83;8.80;;;22.90;1.00;;;;;;5032116;28;20226;-65
2021/07/04 09:18:41;;;;;;;10.03;9.03;;;22.80;1.00;;;;;;5032215;28;20205;-65
2021/07/04 09:21:20;;;;;;;11.53;9.03;;;22.80;1.00;;;;;;5032338;28;20222;-65
2021/07/04 09:23:47;;;;;;;9.47;8.47;;;22.90;1.00;;;;;;5029679;28;20694;-64
2021/07/04 09:26:37;;;;;;;8.67;7.87;;;23.00;1.00;;;;;;5028454;28;20222;-62
2021/07/04 09:29:04;;;;;;;11.23;7.17;;;22.90;1.00;;;;;;5008691;28;20211;-63
2021/07/04 09:31:31;;;;;;;8.03;6.53;;;22.70;1.00;;;;;;5008987;28;20206;-63
2021/07/04 09:34:03;;;;;;;10.87;6.77;;;22.60;1.00;;;;;;5008807;28;20215;-63
2021/07/04 09:36:31;;;;;;;8.00;7.03;;;22.70;1.00;;;;;;5009221;28;20689;-63
2021/07/04 09:38:58;;;;;;;8.27;7.10;;;22.70;1.00;;;;;;5009228;28;20218;-64
2021/07/04 09:41:25;;;;;;;7.93;6.83;;;22.70;1.00;;;;;;5015963;28;20225;-66
2021/07/04 09:43:52;;;;;;;12.30;7.07;;;22.50;1.00;;;;;;5030095;28;20217;-65
2021/07/04 09:46:18;;;;;;;12.73;7.40;;;22.60;1.00;;;;;;5028659;28;20230;-64
2021/07/04 09:48:47;;;;;;;8.83;7.47;;;22.50;1.00;;;;;;5027957;28;20210;-64
2021/07/04 09:51:18;;;;;;;8.23;6.93;;;22.50;1.00;;;;;;5028059;28;20206;-64
2021/07/04 09:53:48;;;;;;;7.83;6.67;;;22.50;1.00;;;;;;5027830;28;20594;-63
2021/07/04 09:56:18;;;;;;;8.10;6.73;;;22.80;1.00;;;;;;5028129;28;20269;-64
2021/07/04 09:58:47;;;;;;;7.77;6.90;;;23.10;1.00;;;;;;5026762;28;20216;-63
2021/07/04 10:01:33;;;;;;;9.43;6.63;;;23.50;1.00;;;;;;5028256;28;20650;-65
2021/07/04 10:04:00;;;;;;;7.97;6.27;;;24.10;1.00;;;;;;5028050;28;20362;-63
2021/07/04 10:06:27;;;;;;;7.53;6.33;;;24.30;99.90;;;;;;5028538;28;20292;-66
2021/07/04 10:08:56;;;;;;;8.13;6.47;;;24.50;99.90;;;;;;5027753;28;20222;-64
2021/07/04 10:11:22;;;;;;;8.70;6.60;;;24.60;99.90;;;;;;5029259;28;20264;-65
2021/07/04 10:13:51;;;;;;;10.30;6.87;;;24.70;99.90;;;;;;5032158;28;20214;-66
2021/07/04 10:16:18;;;;;;;8.27;6.47;;;24.60;99.90;;;;;;5032262;28;20240;-65
2021/07/04 10:18:47;;;;;;;9.83;6.47;;;24.50;99.90;;;;;;5031553;28;20218;-66
2021/07/04 10:21:14;;;;;;;8.57;6.33;;;24.10;99.90;;;;;;5030380;28;20304;-65
2021/07/04 10:23:47;;;;;;;9.37;6.37;;;24.00;99.90;;;;;;5032000;28;20217;-66
2021/07/04 10:26:16;;;;;;;7.03;6.37;;;24.00;99.90;;;;;;5031733;28;20230;-65
2021/07/04 10:28:44;;;;;;;8.07;5.53;;;23.80;99.90;;;;;;5032256;28;20210;-66
2021/07/04 10:31:13;;;;;;;6.90;6.17;;;23.80;99.90;;;;;;5033309;28;20380;-66
2021/07/04 10:33:40;;;;;;;6.77;6.07;;;23.80;99.90;;;;;;5032106;28;20206;-67
2021/07/04 10:36:10;;;;;;;6.23;5.63;;;23.40;99.90;;;;;;5031870;28;20666;-68
2021/07/04 10:38:45;;;;;;;9.07;5.63;;;23.30;99.90;;;;;;5029687;28;20843;-65
2021/07/04 10:41:13;;;;;;;7.63;5.90;;;23.20;99.90;;;;;;5031111;28;20709;-66
2021/07/04 10:44:06;;;;;;;7.83;5.73;;;23.10;99.90;;;;;;5031423;28;20565;-65
2021/07/04 10:47:06;;;;;;;6.13;5.53;;;23.10;99.90;;;;;;5031516;28;20776;-64
2021/07/04 10:49:41;;;;;;;7.57;5.43;;;23.10;99.90;;;;;;5031699;28;20853;-65
2021/07/04 10:52:38;;;;;;;7.03;5.37;;;23.00;99.90;;;;;;5031180;28;20209;-65
2021/07/04 10:55:07;;;;;;;7.03;6.33;;;22.60;99.90;;;;;;5027108;28;20313;-66
2021/07/04 10:57:35;;;;;;;7.57;6.53;;;22.30;1.00;;;;;;5031323;28;20874;-65
2021/07/04 11:00:22;;;;;;;10.47;6.70;;;22.00;1.00;;;;;;5032410;28;20210;-64
2021/07/04 11:02:50;;;;;;;8.10;6.10;;;22.30;1.00;;;;;;5045195;28;20240;-63
2021/07/04 11:05:18;;;;;;;7.37;6.30;;;22.50;1.00;;;;;;5051282;28;20218;-66
2021/07/04 11:08:12;;;;;;;8.93;6.90;;;22.60;1.00;;;;;;5032557;28;20284;-64
2021/07/04 11:10:51;;;;;;;7.20;6.30;;;22.80;99.90;;;;;;5006648;28;20221;-66
2021/07/04 11:13:30;;;;;;;8.17;6.60;;;22.90;99.90;;;;;;5033463;28;20213;-67
2021/07/04 11:16:19;;;;;;;7.17;6.20;;;23.10;99.90;;;;;;5032271;28;20300;-64
2021/07/04 11:18:48;;;;;;;6.63;6.03;;;23.10;99.90;;;;;;5031146;28;20245;-64
2021/07/04 11:21:17;;;;;;;6.60;5.93;;;23.10;99.90;;;;;;5030125;28;20206;-65
2021/07/04 11:23:44;;;;;;;10.27;6.43;;;23.20;99.90;;;;;;5030171;28;20233;-67
2021/07/04 11:26:21;;;;;;;14.63;8.83;;;23.20;99.90;;;;;;5029129;28;20260;-66
2021/07/04 11:28:50;;;;;;;9.70;7.33;;;23.00;1.00;;;;;;5030536;28;20214;-67
2021/07/04 11:31:26;;;;;;;11.67;7.80;;;22.50;1.00;;;;;;5030658;28;20232;-65
2021/07/04 11:33:54;;;;;;;9.47;8.20;;;22.10;1.00;;;;;;5030370;28;20218;-65
2021/07/04 11:36:24;;;;;;;10.50;8.93;;;21.80;1.00;;;;;;5030827;28;20794;-66
2021/07/04 11:38:53;;;;;;;10.23;8.70;;;21.60;1.00;;;;;;5030636;28;20637;-68
2021/07/04 11:41:21;;;;;;;10.73;9.63;;;21.60;98.80;;;;;;5029238;28;20653;-65
2021/07/04 11:43:53;;;;;;;15.07;10.37;;;21.30;99.90;;;;;;5030322;28;20206;-65
2021/07/04 11:46:22;;;;;;;10.70;9.67;;;21.30;99.90;;;;;;5030288;28;20226;-65
2021/07/04 11:49:00;;;;;;;9.07;8.07;;;21.00;1.00;;;;;;5030396;28;20253;-66
2021/07/04 11:51:29;;;;;;;9.77;7.67;;;20.90;99.90;;;;;;5030199;28;20249;-65
2021/07/04 11:53:59;;;;;;;9.63;8.30;;;20.90;99.90;;;;;;5030267;28;20335;-65
2021/07/04 11:56:27;;;;;;;10.27;8.17;;;20.80;1.00;;;;;;5029966;28;20230;-65
2021/07/04 11:58:53;;;;;;;9.10;8.17;;;20.80;1.00;;;;;;5028958;28;20256;-64
2021/07/04 12:01:23;;;;;;;12.20;8.07;;;20.80;1.00;;;;;;5028088;28;20601;-64
2021/07/04 12:03:51;;;;;;;8.83;7.90;;;20.80;99.90;;;;;;5029830;28;20221;-62
2021/07/04 12:06:20;;;;;;;8.27;7.47;;;20.90;1.00;;;;;;5029166;28;20260;-62
2021/07/04 12:08:59;;;;;;;10.53;8.30;;;21.00;95.10;;;;;;5029978;28;20214;-61
2021/07/04 12:11:47;;;;;;;10.43;9.27;;;21.10;99.90;;;;;;5030095;28;20587;-60
2021/07/04 12:14:33;;;;;;;10.53;9.47;;;21.20;1.00;;;;;;5029815;28;20218;-63
2021/07/04 12:17:17;;;;;;;16.50;10.93;;;21.20;1.00;;;;;;5030297;28;20245;-63
2021/07/04 12:19:52;;;;;;;15.10;10.50;;;21.30;99.90;;;;;;5028745;28;20251;-64
2021/07/04 12:22:23;;;;;;;12.40;9.97;;;21.30;1.00;;;;;;5029958;28;20291;-64
2021/07/04 12:24:50;;;;;;;11.23;10.13;;;21.30;99.90;;;;;;5029678;28;20217;-64
2021/07/04 12:27:17;;;;;;;12.93;11.13;;;21.20;1.00;;;;;;5029559;28;20373;-63
2021/07/04 12:30:02;;;;;;;13.57;11.70;;;21.20;99.90;;;;;;5029656;28;20214;-63
2021/07/04 12:32:30;;;;;;;14.40;12.60;;;21.30;1.00;;;;;;5029656;28;20210;-62
2021/07/04 12:34:57;;;;;;;13.67;11.67;;;21.40;99.90;;;;;;5028721;28;20343;-63
2021/07/04 12:37:27;;;;;;;13.80;11.63;;;21.50;99.90;;;;;;5028735;28;20230;-64
2021/07/04 12:40:07;;;;;;;12.67;11.33;;;21.60;64.60;;;;;;5030145;28;20218;-60
2021/07/04 12:42:34;;;;;;;12.80;10.97;;;21.70;1.00;;;;;;5028203;28;20973;-60